sensor_id;sensor_type;location;lat;lon;timestamp;temperature;humidity
54158;DHT22;40065;49.894;10.358;2023-09-08T00:02:05;20.30;91.90
54158;DHT22;40065;49.894;10.358;2023-09-08T00:07:07;20.00;93.30
54158;DHT22;40065;49.894;10.358;2023-09-08T00:12:09;19.80;94.00
54158;DHT22;40065;49.894;10.358;2023-09-08T00:17:11;19.50;94.10
54158;DHT22;40065;49.894;10.358;2023-09-08T00:22:13;19.30;95.80
54158;DHT22;40065;49.894;10.358;2023-09-08T00:27:15;19.10;96.00
54158;DHT22;40065;49.894;10.358;2023-09-08T00:32:17;19.00;97.60
54158;DHT22;40065;49.894;10.358;2023-09-08T00:37:19;18.90;97.20
54158;DHT22;40065;49.894;10.358;2023-09-08T00:42:21;18.70;98.00
54158;DHT22;40065;49.894;10.358;2023-09-08T00:47:22;18.50;99.90
54158;DHT22;40065;49.894;10.358;2023-09-08T00:52:24;18.40;99.50
54158;DHT22;40065;49.894;10.358;2023-09-08T00:57:32;18.30;99.90
54158;DHT22;40065;49.894;10.358;2023-09-08T01:02:34;18.30;99.90
54158;DHT22;40065;49.894;10.358;2023-09-08T01:07:36;18.20;99.90
54158;DHT22;40065;49.894;10.358;2023-09-08T01:12:39;18.00;99.90
54158;DHT22;40065;49.894;10.358;2023-09-08T01:17:41;17.90;99.90
54158;DHT22;40065;49.894;10.358;2023-09-08T01:23:23;17.80;99.90
54158;DHT22;40065;49.894;10.358;2023-09-08T01:28:26;17.70;99.90
54158;DHT22;40065;49.894;10.358;2023-09-08T01:33:28;17.60;99.90
54158;DHT22;40065;49.894;10.358;2023-09-08T01:38:30;17.40;99.90
54158;DHT22;40065;49.894;10.358;2023-09-08T01:43:33;17.40;99.90
54158;DHT22;40065;49.894;10.358;2023-09-08T01:48:35;17.30;99.90
54158;DHT22;40065;49.894;10.358;2023-09-08T01:53:37;17.30;99.90
54158;DHT22;40065;49.894;10.358;2023-09-08T01:58:39;17.20;99.90
54158;DHT22;40065;49.894;10.358;2023-09-08T02:03:41;17.10;99.90
54158;DHT22;40065;49.894;10.358;2023-09-08T02:08:43;17.10;99.90
54158;DHT22;40065;49.894;10.358;2023-09-08T02:13:45;16.90;99.90
54158;DHT22;40065;49.894;10.358;2023-09-08T02:18:46;16.80;99.90
54158;DHT22;40065;49.894;10.358;2023-09-08T02:23:48;16.70;99.90
54158;DHT22;40065;49.894;10.358;2023-09-08T02:28:50;16.60;99.90
54158;DHT22;40065;49.894;10.358;2023-09-08T02:33:53;16.60;99.90
54158;DHT22;40065;49.894;10.358;2023-09-08T02:38:56;16.60;99.90
54158;DHT22;40065;49.894;10.358;2023-09-08T02:43:58;16.50;99.90
54158;DHT22;40065;49.894;10.358;2023-09-08T02:49:00;16.40;99.90
54158;DHT22;40065;49.894;10.358;2023-09-08T02:54:03;16.20;99.90
54158;DHT22;40065;49.894;10.358;2023-09-08T02:59:05;16.10;99.90
54158;DHT22;40065;49.894;10.358;2023-09-08T03:04:07;16.10;99.90
54158;DHT22;40065;49.894;10.358;2023-09-08T03:09:09;16.10;99.90
54158;DHT22;40065;49.894;10.358;2023-09-08T03:14:10;16.00;99.90
54158;DHT22;40065;49.894;10.358;2023-09-08T03:19:12;15.80;99.90
54158;DHT22;40065;49.894;10.358;2023-09-08T03:24:14;15.80;99.90
54158;DHT22;40065;49.894;10.358;2023-09-08T03:29:16;15.80;99.90
54158;DHT22;40065;49.894;10.358;2023-09-08T03:34:18;15.80;99.90
54158;DHT22;40065;49.894;10.358;2023-09-08T03:39:23;15.70;99.90
54158;DHT22;40065;49.894;10.358;2023-09-08T03:44:24;15.60;99.90
54158;DHT22;40065;49.894;10.358;2023-09-08T03:49:27;15.60;99.90
54158;DHT22;40065;49.894;10.358;2023-09-08T03:54:29;15.50;99.90
54158;DHT22;40065;49.894;10.358;2023-09-08T03:59:31;15.50;99.90
54158;DHT22;40065;49.894;10.358;2023-09-08T04:04:33;15.50;99.90
54158;DHT22;40065;49.894;10.358;2023-09-08T04:09:35;15.40;99.90
54158;DHT22;40065;49.894;10.358;2023-09-08T04:14:37;15.30;99.90
54158;DHT22;40065;49.894;10.358;2023-09-08T04:19:39;15.30;99.90
54158;DHT22;40065;49.894;10.358;2023-09-08T04:24:42;15.40;99.90
54158;DHT22;40065;49.894;10.358;2023-09-08T04:29:44;15.40;99.90
54158;DHT22;40065;49.894;10.358;2023-09-08T04:34:45;15.20;99.90
54158;DHT22;40065;49.894;10.358;2023-09-08T04:39:47;15.20;99.90
54158;DHT22;40065;49.894;10.358;2023-09-08T04:44:49;15.40;99.90
54158;DHT22;40065;49.894;10.358;2023-09-08T04:49:51;15.30;99.90
54158;DHT22;40065;49.894;10.358;2023-09-08T04:54:53;15.20;99.90
54158;DHT22;40065;49.894;10.358;2023-09-08T04:59:55;15.20;99.90
54158;DHT22;40065;49.894;10.358;2023-09-08T05:04:57;15.30;99.90
54158;DHT22;40065;49.894;10.358;2023-09-08T05:09:59;15.30;99.90
54158;DHT22;40065;49.894;10.358;2023-09-08T05:15:05;15.30;99.90
54158;DHT22;40065;49.894;10.358;2023-09-08T05:20:13;15.30;99.90
54158;DHT22;40065;49.894;10.358;2023-09-08T05:25:16;15.30;99.90
54158;DHT22;40065;49.894;10.358;2023-09-08T05:30:18;15.50;99.90
54158;DHT22;40065;49.894;10.358;2023-09-08T05:35:20;16.30;99.90
54158;DHT22;40065;49.894;10.358;2023-09-08T05:40:23;17.00;99.90
54158;DHT22;40065;49.894;10.358;2023-09-08T05:45:26;18.30;99.90
54158;DHT22;40065;49.894;10.358;2023-09-08T05:50:28;21.30;99.90
54158;DHT22;40065;49.894;10.358;2023-09-08T05:55:31;20.70;99.90
54158;DHT22;40065;49.894;10.358;2023-09-08T06:00:33;24.60;94.20
54158;DHT22;40065;49.894;10.358;2023-09-08T06:05:35;26.90;90.10
54158;DHT22;40065;49.894;10.358;2023-09-08T06:10:39;28.30;85.50
54158;DHT22;40065;49.894;10.358;2023-09-08T06:15:41;29.40;80.60
54158;DHT22;40065;49.894;10.358;2023-09-08T06:20:45;29.50;79.50
54158;DHT22;40065;49.894;10.358;2023-09-08T06:25:49;29.20;78.50
54158;DHT22;40065;49.894;10.358;2023-09-08T06:30:54;29.10;78.30
54158;DHT22;40065;49.894;10.358;2023-09-08T06:35:56;31.30;74.60
54158;DHT22;40065;49.894;10.358;2023-09-08T06:41:00;31.60;73.00
54158;DHT22;40065;49.894;10.358;2023-09-08T06:46:03;32.90;69.30
54158;DHT22;40065;49.894;10.358;2023-09-08T06:51:06;31.70;71.90
54158;DHT22;40065;49.894;10.358;2023-09-08T06:56:09;31.90;71.60
54158;DHT22;40065;49.894;10.358;2023-09-08T07:01:10;32.80;67.90
54158;DHT22;40065;49.894;10.358;2023-09-08T07:06:13;33.10;67.10
54158;DHT22;40065;49.894;10.358;2023-09-08T07:11:15;31.70;69.10
54158;DHT22;40065;49.894;10.358;2023-09-08T07:16:19;32.30;69.10
54158;DHT22;40065;49.894;10.358;2023-09-08T07:21:22;34.60;67.30
54158;DHT22;40065;49.894;10.358;2023-09-08T07:26:24;34.00;66.90
54158;DHT22;40065;49.894;10.358;2023-09-08T07:31:26;33.70;66.70
54158;DHT22;40065;49.894;10.358;2023-09-08T07:36:28;32.50;68.40
54158;DHT22;40065;49.894;10.358;2023-09-08T07:41:30;32.50;68.80
54158;DHT22;40065;49.894;10.358;2023-09-08T07:46:32;30.90;69.60
54158;DHT22;40065;49.894;10.358;2023-09-08T07:51:34;31.60;68.10
54158;DHT22;40065;49.894;10.358;2023-09-08T07:56:36;30.20;69.30
54158;DHT22;40065;49.894;10.358;2023-09-08T08:01:38;30.60;69.10
54158;DHT22;40065;49.894;10.358;2023-09-08T08:06:40;32.10;65.90
54158;DHT22;40065;49.894;10.358;2023-09-08T08:11:42;32.80;66.10
54158;DHT22;40065;49.894;10.358;2023-09-08T08:16:44;32.40;66.80
54158;DHT22;40065;49.894;10.358;2023-09-08T08:21:46;34.00;62.80
54158;DHT22;40065;49.894;10.358;2023-09-08T08:26:48;33.70;63.90
54158;DHT22;40065;49.894;10.358;2023-09-08T08:31:50;35.60;60.50
54158;DHT22;40065;49.894;10.358;2023-09-08T08:36:52;32.90;62.10
54158;DHT22;40065;49.894;10.358;2023-09-08T08:41:54;33.80;62.00
54158;DHT22;40065;49.894;10.358;2023-09-08T08:46:56;34.20;60.00
54158;DHT22;40065;49.894;10.358;2023-09-08T08:51:59;32.70;62.60
54158;DHT22;40065;49.894;10.358;2023-09-08T08:57:02;32.10;63.40
54158;DHT22;40065;49.894;10.358;2023-09-08T09:02:05;34.00;61.80
54158;DHT22;40065;49.894;10.358;2023-09-08T09:07:07;33.40;61.50
54158;DHT22;40065;49.894;10.358;2023-09-08T09:12:10;31.80;62.30
54158;DHT22;40065;49.894;10.358;2023-09-08T09:17:13;33.50;62.00
54158;DHT22;40065;49.894;10.358;2023-09-08T09:22:20;30.90;62.60
54158;DHT22;40065;49.894;10.358;2023-09-08T09:27:22;32.10;62.70
54158;DHT22;40065;49.894;10.358;2023-09-08T09:32:24;33.20;60.10
54158;DHT22;40065;49.894;10.358;2023-09-08T09:37:27;33.50;61.00
54158;DHT22;40065;49.894;10.358;2023-09-08T09:42:29;31.20;63.50
54158;DHT22;40065;49.894;10.358;2023-09-08T09:47:31;32.00;61.00
54158;DHT22;40065;49.894;10.358;2023-09-08T09:52:38;31.90;61.60
54158;DHT22;40065;49.894;10.358;2023-09-08T09:57:40;32.80;62.40
54158;DHT22;40065;49.894;10.358;2023-09-08T10:02:42;32.80;62.10
54158;DHT22;40065;49.894;10.358;2023-09-08T10:07:49;32.70;60.00
54158;DHT22;40065;49.894;10.358;2023-09-08T10:12:57;33.30;59.70
54158;DHT22;40065;49.894;10.358;2023-09-08T10:18:05;33.50;59.20
54158;DHT22;40065;49.894;10.358;2023-09-08T10:23:23;32.90;59.60
54158;DHT22;40065;49.894;10.358;2023-09-08T10:28:26;32.00;60.80
54158;DHT22;40065;49.894;10.358;2023-09-08T10:33:30;31.20;60.90
54158;DHT22;40065;49.894;10.358;2023-09-08T10:38:34;31.10;61.60
54158;DHT22;40065;49.894;10.358;2023-09-08T10:43:37;31.70;61.10
54158;DHT22;40065;49.894;10.358;2023-09-08T10:48:43;31.30;60.10
54158;DHT22;40065;49.894;10.358;2023-09-08T10:53:49;32.40;58.10
54158;DHT22;40065;49.894;10.358;2023-09-08T10:58:54;31.80;57.70
54158;DHT22;40065;49.894;10.358;2023-09-08T11:03:57;30.30;61.40
54158;DHT22;40065;49.894;10.358;2023-09-08T11:09:07;32.70;59.80
54158;DHT22;40065;49.894;10.358;2023-09-08T11:14:09;31.90;59.80
54158;DHT22;40065;49.894;10.358;2023-09-08T11:19:11;32.60;59.80
54158;DHT22;40065;49.894;10.358;2023-09-08T11:24:14;31.70;60.80
54158;DHT22;40065;49.894;10.358;2023-09-08T11:29:16;33.50;58.70
54158;DHT22;40065;49.894;10.358;2023-09-08T11:34:20;33.20;57.80
54158;DHT22;40065;49.894;10.358;2023-09-08T11:39:25;32.60;60.50
54158;DHT22;40065;49.894;10.358;2023-09-08T11:44:27;32.60;59.50
54158;DHT22;40065;49.894;10.358;2023-09-08T11:49:36;33.00;57.90
54158;DHT22;40065;49.894;10.358;2023-09-08T11:54:38;31.90;60.00
54158;DHT22;40065;49.894;10.358;2023-09-08T12:00:00;33.20;59.80
54158;DHT22;40065;49.894;10.358;2023-09-08T12:05:27;32.40;59.60
54158;DHT22;40065;49.894;10.358;2023-09-08T12:10:29;32.00;57.80
54158;DHT22;40065;49.894;10.358;2023-09-08T12:15:32;32.30;58.20
54158;DHT22;40065;49.894;10.358;2023-09-08T12:20:36;33.10;57.80
54158;DHT22;40065;49.894;10.358;2023-09-08T12:25:49;33.30;59.20
54158;DHT22;40065;49.894;10.358;2023-09-08T12:30:51;32.10;61.40
54158;DHT22;40065;49.894;10.358;2023-09-08T12:35:55;31.40;59.60
54158;DHT22;40065;49.894;10.358;2023-09-08T12:40:56;31.20;60.40
54158;DHT22;40065;49.894;10.358;2023-09-08T12:45:58;32.10;58.90
54158;DHT22;40065;49.894;10.358;2023-09-08T12:51:00;32.10;57.90
54158;DHT22;40065;49.894;10.358;2023-09-08T12:56:03;31.60;58.30
54158;DHT22;40065;49.894;10.358;2023-09-08T13:01:05;32.00;58.70
54158;DHT22;40065;49.894;10.358;2023-09-08T13:06:09;31.80;58.60
54158;DHT22;40065;49.894;10.358;2023-09-08T13:11:10;31.80;62.90
54158;DHT22;40065;49.894;10.358;2023-09-08T13:16:12;32.40;54.50
54158;DHT22;40065;49.894;10.358;2023-09-08T13:21:15;31.90;58.50
54158;DHT22;40065;49.894;10.358;2023-09-08T13:26:17;32.10;55.30
54158;DHT22;40065;49.894;10.358;2023-09-08T13:31:19;32.60;56.00
54158;DHT22;40065;49.894;10.358;2023-09-08T13:36:21;32.40;58.90
54158;DHT22;40065;49.894;10.358;2023-09-08T13:41:23;31.70;59.40
54158;DHT22;40065;49.894;10.358;2023-09-08T13:46:25;31.90;59.50
54158;DHT22;40065;49.894;10.358;2023-09-08T13:51:27;31.70;57.20
54158;DHT22;40065;49.894;10.358;2023-09-08T13:56:29;32.00;58.90
54158;DHT22;40065;49.894;10.358;2023-09-08T14:01:35;31.80;56.30
54158;DHT22;40065;49.894;10.358;2023-09-08T14:06:42;31.70;57.40
54158;DHT22;40065;49.894;10.358;2023-09-08T14:11:47;32.20;56.60
54158;DHT22;40065;49.894;10.358;2023-09-08T14:16:52;31.80;56.50
54158;DHT22;40065;49.894;10.358;2023-09-08T14:21:54;31.50;57.70
54158;DHT22;40065;49.894;10.358;2023-09-08T14:26:55;31.40;57.50
54158;DHT22;40065;49.894;10.358;2023-09-08T14:31:57;31.90;57.20
54158;DHT22;40065;49.894;10.358;2023-09-08T14:36:59;31.90;58.00
54158;DHT22;40065;49.894;10.358;2023-09-08T14:42:05;31.80;56.50
54158;DHT22;40065;49.894;10.358;2023-09-08T14:47:07;31.60;59.00
54158;DHT22;40065;49.894;10.358;2023-09-08T14:52:10;31.30;60.50
54158;DHT22;40065;49.894;10.358;2023-09-08T14:57:12;30.90;58.80
54158;DHT22;40065;49.894;10.358;2023-09-08T15:02:14;31.30;58.80
54158;DHT22;40065;49.894;10.358;2023-09-08T15:07:16;31.10;58.60
54158;DHT22;40065;49.894;10.358;2023-09-08T15:12:18;31.40;58.90
54158;DHT22;40065;49.894;10.358;2023-09-08T15:17:19;31.40;58.40
54158;DHT22;40065;49.894;10.358;2023-09-08T15:22:21;30.80;59.00
54158;DHT22;40065;49.894;10.358;2023-09-08T15:27:23;30.80;59.80
54158;DHT22;40065;49.894;10.358;2023-09-08T15:32:25;30.70;58.20
54158;DHT22;40065;49.894;10.358;2023-09-08T15:37:27;30.80;59.10
54158;DHT22;40065;49.894;10.358;2023-09-08T15:42:29;30.30;59.30
54158;DHT22;40065;49.894;10.358;2023-09-08T15:47:31;29.50;60.00
54158;DHT22;40065;49.894;10.358;2023-09-08T15:52:33;29.00;61.60
54158;DHT22;40065;49.894;10.358;2023-09-08T15:57:35;28.90;62.30
54158;DHT22;40065;49.894;10.358;2023-09-08T16:02:43;28.90;62.00
54158;DHT22;40065;49.894;10.358;2023-09-08T16:07:48;28.80;62.80
54158;DHT22;40065;49.894;10.358;2023-09-08T16:12:50;28.80;63.20
54158;DHT22;40065;49.894;10.358;2023-09-08T16:17:52;28.70;62.80
54158;DHT22;40065;49.894;10.358;2023-09-08T16:22:54;28.60;63.60
54158;DHT22;40065;49.894;10.358;2023-09-08T16:27:55;28.30;63.90
54158;DHT22;40065;49.894;10.358;2023-09-08T16:32:57;28.30;63.50
54158;DHT22;40065;49.894;10.358;2023-09-08T16:37:59;28.20;62.80
54158;DHT22;40065;49.894;10.358;2023-09-08T16:43:01;28.00;62.80
54158;DHT22;40065;49.894;10.358;2023-09-08T16:48:04;27.90;63.40
54158;DHT22;40065;49.894;10.358;2023-09-08T16:53:06;27.80;63.80
54158;DHT22;40065;49.894;10.358;2023-09-08T16:58:09;27.60;65.10
54158;DHT22;40065;49.894;10.358;2023-09-08T17:03:12;27.30;66.20
54158;DHT22;40065;49.894;10.358;2023-09-08T17:08:14;27.10;67.60
54158;DHT22;40065;49.894;10.358;2023-09-08T17:13:16;26.80;68.50
54158;DHT22;40065;49.894;10.358;2023-09-08T17:18:17;26.70;69.40
54158;DHT22;40065;49.894;10.358;2023-09-08T17:23:24;26.40;71.20
54158;DHT22;40065;49.894;10.358;2023-09-08T17:28:26;26.10;71.50
54158;DHT22;40065;49.894;10.358;2023-09-08T17:33:28;25.70;72.50
54158;DHT22;40065;49.894;10.358;2023-09-08T17:38:30;25.50;74.00
54158;DHT22;40065;49.894;10.358;2023-09-08T17:43:33;25.30;74.60
54158;DHT22;40065;49.894;10.358;2023-09-08T17:48:35;24.90;75.50
54158;DHT22;40065;49.894;10.358;2023-09-08T17:53:36;24.70;75.80
54158;DHT22;40065;49.894;10.358;2023-09-08T17:58:39;24.40;78.90
54158;DHT22;40065;49.894;10.358;2023-09-08T18:03:41;24.00;79.70
54158;DHT22;40065;49.894;10.358;2023-09-08T18:08:43;23.70;82.10
54158;DHT22;40065;49.894;10.358;2023-09-08T18:13:46;23.50;81.50
54158;DHT22;40065;49.894;10.358;2023-09-08T18:18:48;23.30;83.50
54158;DHT22;40065;49.894;10.358;2023-09-08T18:23:50;23.00;87.60
54158;DHT22;40065;49.894;10.358;2023-09-08T18:28:52;22.70;87.40
54158;DHT22;40065;49.894;10.358;2023-09-08T18:33:55;22.60;87.80
54158;DHT22;40065;49.894;10.358;2023-09-08T18:38:57;22.30;89.50
54158;DHT22;40065;49.894;10.358;2023-09-08T18:43:58;22.00;90.70
54158;DHT22;40065;49.894;10.358;2023-09-08T18:49:00;21.90;91.50
54158;DHT22;40065;49.894;10.358;2023-09-08T18:54:02;21.60;92.30
54158;DHT22;40065;49.894;10.358;2023-09-08T18:59:04;21.20;94.00
54158;DHT22;40065;49.894;10.358;2023-09-08T19:04:06;21.10;93.80
54158;DHT22;40065;49.894;10.358;2023-09-08T19:09:08;21.00;94.80
54158;DHT22;40065;49.894;10.358;2023-09-08T19:14:10;21.00;94.40
54158;DHT22;40065;49.894;10.358;2023-09-08T19:19:12;20.80;95.20
54158;DHT22;40065;49.894;10.358;2023-09-08T19:24:14;20.80;95.90
54158;DHT22;40065;49.894;10.358;2023-09-08T19:29:17;20.50;97.00
54158;DHT22;40065;49.894;10.358;2023-09-08T19:34:20;20.20;97.70
54158;DHT22;40065;49.894;10.358;2023-09-08T19:39:22;20.10;97.40
54158;DHT22;40065;49.894;10.358;2023-09-08T19:44:24;20.20;97.10
54158;DHT22;40065;49.894;10.358;2023-09-08T19:49:26;20.00;97.30
54158;DHT22;40065;49.894;10.358;2023-09-08T19:54:27;20.10;97.80
54158;DHT22;40065;49.894;10.358;2023-09-08T19:59:31;20.20;96.70
54158;DHT22;40065;49.894;10.358;2023-09-08T20:04:33;20.00;96.60
54158;DHT22;40065;49.894;10.358;2023-09-08T20:09:34;19.90;97.50
54158;DHT22;40065;49.894;10.358;2023-09-08T20:14:36;19.90;97.60
54158;DHT22;40065;49.894;10.358;2023-09-08T20:19:38;19.60;98.60
54158;DHT22;40065;49.894;10.358;2023-09-08T20:24:40;19.60;98.10
54158;DHT22;40065;49.894;10.358;2023-09-08T20:29:43;19.50;98.90
54158;DHT22;40065;49.894;10.358;2023-09-08T20:34:45;19.40;99.10
54158;DHT22;40065;49.894;10.358;2023-09-08T20:39:47;19.40;98.50
54158;DHT22;40065;49.894;10.358;2023-09-08T20:44:49;19.50;98.30
54158;DHT22;40065;49.894;10.358;2023-09-08T20:49:51;19.40;98.60
54158;DHT22;40065;49.894;10.358;2023-09-08T20:54:56;19.60;98.50
54158;DHT22;40065;49.894;10.358;2023-09-08T20:59:58;19.40;98.20
54158;DHT22;40065;49.894;10.358;2023-09-08T21:04:59;19.40;98.20
54158;DHT22;40065;49.894;10.358;2023-09-08T21:10:01;19.30;98.20
54158;DHT22;40065;49.894;10.358;2023-09-08T21:15:04;19.40;99.90
54158;DHT22;40065;49.894;10.358;2023-09-08T21:20:07;19.50;99.90
54158;DHT22;40065;49.894;10.358;2023-09-08T21:25:09;19.40;99.90
54158;DHT22;40065;49.894;10.358;2023-09-08T21:30:11;19.20;99.90
54158;DHT22;40065;49.894;10.358;2023-09-08T21:35:13;18.90;99.90
54158;DHT22;40065;49.894;10.358;2023-09-08T21:40:15;18.80;99.90
54158;DHT22;40065;49.894;10.358;2023-09-08T21:45:17;18.80;99.90
54158;DHT22;40065;49.894;10.358;2023-09-08T21:50:20;18.60;99.90
54158;DHT22;40065;49.894;10.358;2023-09-08T21:55:23;18.60;99.90
54158;DHT22;40065;49.894;10.358;2023-09-08T22:00:25;18.60;99.90
54158;DHT22;40065;49.894;10.358;2023-09-08T22:05:28;18.40;99.90
54158;DHT22;40065;49.894;10.358;2023-09-08T22:10:30;18.30;99.90
54158;DHT22;40065;49.894;10.358;2023-09-08T22:15:31;18.20;99.90
54158;DHT22;40065;49.894;10.358;2023-09-08T22:20:33;18.10;99.90
54158;DHT22;40065;49.894;10.358;2023-09-08T22:25:35;18.00;99.90
54158;DHT22;40065;49.894;10.358;2023-09-08T22:30:37;18.00;99.90
54158;DHT22;40065;49.894;10.358;2023-09-08T22:35:40;18.00;99.90
54158;DHT22;40065;49.894;10.358;2023-09-08T22:40:43;17.80;99.90
54158;DHT22;40065;49.894;10.358;2023-09-08T22:45:45;17.70;99.90
54158;DHT22;40065;49.894;10.358;2023-09-08T22:50:47;17.70;99.90
54158;DHT22;40065;49.894;10.358;2023-09-08T22:55:50;17.50;99.90
54158;DHT22;40065;49.894;10.358;2023-09-08T23:00:52;17.40;99.90
54158;DHT22;40065;49.894;10.358;2023-09-08T23:05:54;17.30;99.90
54158;DHT22;40065;49.894;10.358;2023-09-08T23:10:55;17.20;99.90
54158;DHT22;40065;49.894;10.358;2023-09-08T23:15:57;17.20;99.90
54158;DHT22;40065;49.894;10.358;2023-09-08T23:20:59;17.10;99.90
54158;DHT22;40065;49.894;10.358;2023-09-08T23:26:02;17.20;99.90
54158;DHT22;40065;49.894;10.358;2023-09-08T23:31:05;17.00;99.90
54158;DHT22;40065;49.894;10.358;2023-09-08T23:36:07;17.00;99.90
54158;DHT22;40065;49.894;10.358;2023-09-08T23:41:09;16.70;99.90
54158;DHT22;40065;49.894;10.358;2023-09-08T23:46:11;16.80;99.90
54158;DHT22;40065;49.894;10.358;2023-09-08T23:51:12;16.70;99.90
54158;DHT22;40065;49.894;10.358;2023-09-08T23:56:14;16.60;99.90
